Knife Lake, Minnesota
Current Conditions -  °F | °C
As of 4:05 PM on Monday 26 Jan 2015 (Local Time) from KJMR Reporting Station
Overcast Overcast  
Wind Chill: 30°   Ceiling: 2800
Heat Index: 37°   Visibility: 10mi
Dew Point: 30°   Wind: 10mph
Humidity: 75%   Direction: 310°NW
Pressure: 29.79"   Gusts: NA
Location:  45.9652°N, 93.2874°W
Report Text: KJMR 262205Z AUTO 31009KT 10SM BKN028 BKN032 OVC038 03/M01 A2979 RMK AO2
Loading
Personal Weather Stations






























Interactive Weather Map New forecast layout! Learn more

10-Day Weather Forecast

Advertisements
Track Severe Weather on mobile